Time;durP1;ratioP1;P1;durP2;ratioP2;P2;SDS_P1;SDS_P2;PMS_P1;PMS_P2;Temp;Humidity;BMP_temperature;BMP_pressure;BME280_temperature;BME280_humidity;BME280_pressure;Samples;Min_cycle;Max_cycle;Signal;HPM_P1;HPM_P2
2021/09/07 00:00:05;;;;;;;13.95;7.40;;;;;;;11.93;92.58;99193.69;5026409;28;20021;-65
2021/09/07 00:02:30;;;;;;;14.95;7.32;;;;;;;11.97;92.25;99190.13;5026227;28;20052;-65
2021/09/07 00:04:56;;;;;;;13.73;7.95;;;;;;;11.97;92.49;99184.84;5026190;28;20045;-65
2021/09/07 00:07:24;;;;;;;12.43;7.40;;;;;;;11.91;91.70;99179.66;5026265;28;20029;-65
2021/09/07 00:09:49;;;;;;;11.18;7.25;;;;;;;11.88;92.11;99185.00;5026229;28;20017;-66
2021/09/07 00:12:15;;;;;;;12.95;7.63;;;;;;;11.65;92.28;99180.97;5026192;28;20014;-66
2021/09/07 00:14:40;;;;;;;13.57;8.00;;;;;;;11.54;93.01;99178.44;5026113;28;20025;-65
2021/09/07 00:17:05;;;;;;;11.32;7.18;;;;;;;11.52;92.76;99180.22;5026124;28;20022;-65
2021/09/07 00:19:31;;;;;;;13.07;7.28;;;;;;;11.43;92.65;99175.09;5026047;28;20061;-65
2021/09/07 00:21:56;;;;;;;11.00;6.85;;;;;;;11.42;92.97;99172.50;5025904;28;20029;-65
2021/09/07 00:24:22;;;;;;;14.13;7.22;;;;;;;11.58;92.62;99169.59;5025949;28;20021;-65
2021/09/07 00:26:47;;;;;;;11.52;7.32;;;;;;;11.64;92.10;99169.53;5025904;28;20025;-65
2021/09/07 00:29:12;;;;;;;12.95;7.70;;;;;;;11.59;92.54;99171.34;5025880;28;20041;-65
2021/09/07 00:31:38;;;;;;;12.65;6.97;;;;;;;11.37;92.71;99171.66;5025854;28;20085;-65
2021/09/07 00:34:03;;;;;;;11.68;7.18;;;;;;;11.48;93.34;99178.53;5008291;28;20029;-65
2021/09/07 00:36:29;;;;;;;11.43;6.65;;;;;;;11.60;93.35;99159.91;5025767;28;20029;-65
2021/09/07 00:38:54;;;;;;;10.73;6.90;;;;;;;11.62;93.09;99159.91;5025665;28;20018;-65
2021/09/07 00:41:19;;;;;;;11.27;7.38;;;;;;;11.42;92.28;99168.06;5025562;28;20021;-65
2021/09/07 00:43:45;;;;;;;12.32;7.45;;;;;;;11.35;92.27;99169.06;5025613;28;20088;-65
2021/09/07 00:46:10;;;;;;;13.90;7.35;;;;;;;11.49;93.03;99164.47;5025577;28;20053;-65
2021/09/07 00:48:36;;;;;;;10.13;6.50;;;;;;;11.54;92.99;99167.91;5025497;28;20312;-65
2021/09/07 00:51:02;;;;;;;10.80;6.68;;;;;;;11.48;92.71;99172.41;5025454;28;20314;-65
2021/09/07 00:53:27;;;;;;;12.32;7.25;;;;;;;11.34;92.09;99164.69;5025485;28;20212;-65
2021/09/07 00:55:57;;;;;;;13.25;7.50;;;;;;;11.28;93.05;99170.03;5025795;28;20021;-65
2021/09/07 00:58:29;;;;;;;12.82;7.38;;;;;;;11.30;92.17;99163.00;5025329;28;20089;-65
2021/09/07 01:00:54;;;;;;;10.00;6.43;;;;;;;11.36;92.04;99157.59;5025175;28;20026;-65
2021/09/07 01:03:19;;;;;;;9.38;6.72;;;;;;;11.18;92.39;99152.63;5025058;28;20085;-65
2021/09/07 01:05:47;;;;;;;11.07;6.53;;;;;;;11.02;92.86;99151.94;5025220;28;20030;-65
2021/09/07 01:08:14;;;;;;;8.40;5.65;;;;;;;11.00;93.02;99152.84;5025125;28;20025;-66
2021/09/07 01:10:39;;;;;;;10.27;5.15;;;;;;;10.97;93.37;99155.53;5025100;28;20344;-66
2021/09/07 01:13:05;;;;;;;8.13;5.15;;;;;;;11.03;93.52;99155.44;5025029;28;20077;-67
2021/09/07 01:15:30;;;;;;;8.60;6.28;;;;;;;11.11;93.45;99158.88;5025015;28;20092;-67
2021/09/07 01:17:55;;;;;;;11.30;6.72;;;;;;;11.04;93.03;99149.28;5024987;28;20029;-67
2021/09/07 01:20:21;;;;;;;12.18;6.65;;;;;;;11.05;93.02;99145.78;5024836;28;20041;-67
2021/09/07 01:22:46;;;;;;;9.93;6.40;;;;;;;10.88;93.34;99142.47;5024892;28;20043;-67
2021/09/07 01:25:12;;;;;;;12.15;6.65;;;;;;;10.90;92.84;99145.97;5007370;28;20343;-67
2021/09/07 01:27:38;;;;;;;10.90;6.70;;;;;;;11.08;93.27;99147.47;5024778;28;20109;-67
2021/09/07 01:30:04;;;;;;;11.43;7.45;;;;;;;11.13;93.40;99146.53;5024752;28;20072;-67
2021/09/07 01:32:29;;;;;;;11.88;7.38;;;;;;;11.15;93.06;99141.22;5024734;28;20313;-67
2021/09/07 01:34:55;;;;;;;14.23;6.65;;;;;;;10.92;92.82;99138.91;5024668;28;20022;-67
2021/09/07 01:37:20;;;;;;;11.10;6.75;;;;;;;10.98;93.06;99133.53;5024636;28;20045;-67
2021/09/07 01:39:46;;;;;;;13.05;7.13;;;;;;;10.95;92.84;99133.63;5024607;28;20344;-67
2021/09/07 01:42:11;;;;;;;11.40;6.30;;;;;;;11.07;92.50;99135.22;5024479;28;20068;-67
2021/09/07 01:44:42;;;;;;;11.15;6.97;;;;;;;11.05;92.36;99143.13;5024514;28;20024;-67
2021/09/07 01:47:09;;;;;;;9.63;6.35;;;;;;;11.04;92.08;99144.00;5024530;28;20029;-67
2021/09/07 01:49:34;;;;;;;9.85;6.68;;;;;;;10.93;92.12;99140.66;5024485;28;20256;-67
2021/09/07 01:52:08;;;;;;;8.68;5.78;;;;;;;10.90;92.78;99140.69;5024454;28;20021;-67
2021/09/07 01:54:33;;;;;;;8.88;5.78;;;;;;;10.93;92.64;99136.28;5024422;28;20052;-67
2021/09/07 01:56:58;;;;;;;7.70;4.85;;;;;;;10.99;92.84;99144.06;5024339;28;20085;-67
2021/09/07 01:59:24;;;;;;;8.35;5.53;;;;;;;10.98;92.68;99138.81;5024307;28;20089;-67
2021/09/07 02:01:49;;;;;;;10.35;5.90;;;;;;;10.75;92.32;99140.88;5024508;28;20163;-67
2021/09/07 02:04:15;;;;;;;9.13;5.85;;;;;;;10.79;93.37;99148.72;5024017;28;20046;-67
2021/09/07 02:06:40;;;;;;;11.13;6.53;;;;;;;10.72;93.12;99146.16;5024219;28;20271;-67
2021/09/07 02:09:05;;;;;;;9.88;5.50;;;;;;;10.64;92.82;99150.66;5024156;28;20213;-67
2021/09/07 02:11:32;;;;;;;11.45;7.25;;;;;;;10.56;92.97;99134.97;5024170;28;20086;-67
2021/09/07 02:13:58;;;;;;;11.50;6.28;;;;;;;10.54;93.06;99141.13;5023954;28;20032;-67
2021/09/07 02:16:23;;;;;;;9.70;6.22;;;;;;;10.53;92.99;99136.75;5024117;28;20221;-67
2021/09/07 02:18:49;;;;;;;11.57;5.88;;;;;;;10.65;92.90;99144.50;5024091;28;20085;-67
2021/09/07 02:21:14;;;;;;;14.20;6.30;;;;;;;10.69;92.38;99136.56;5023965;28;20030;-67
2021/09/07 02:23:40;;;;;;;12.18;5.88;;;;;;;10.72;91.94;99130.38;5024106;28;20025;-67
2021/09/07 02:26:05;;;;;;;11.38;6.65;;;;;;;10.63;92.05;99130.47;5024016;28;20029;-67
2021/09/07 02:28:30;;;;;;;10.77;6.57;;;;;;;10.56;92.22;99123.53;5024017;28;20025;-67
2021/09/07 02:30:56;;;;;;;9.38;5.80;;;;;;;10.43;93.10;99120.19;5023995;28;20022;-67
2021/09/07 02:33:21;;;;;;;9.02;5.70;;;;;;;10.44;92.89;99123.72;5023982;28;20048;-67
2021/09/07 02:35:47;;;;;;;8.18;4.53;;;;;;;10.48;93.57;99130.66;5024181;28;20022;-67
2021/09/07 02:38:12;;;;;;;7.45;4.93;;;;;;;10.54;93.31;99131.47;5023962;28;20021;-67
2021/09/07 02:40:37;;;;;;;9.20;5.65;;;;;;;10.29;92.50;99123.88;5023916;28;20030;-67
2021/09/07 02:43:03;;;;;;;9.98;6.70;;;;;;;10.34;93.54;99122.03;5023994;28;20216;-67
2021/09/07 02:45:28;;;;;;;9.60;6.00;;;;;;;10.38;92.62;99118.50;5024248;28;20037;-67
2021/09/07 02:47:54;;;;;;;11.73;6.10;;;;;;;10.38;92.81;99115.88;5023912;28;20029;-67
2021/09/07 02:50:19;;;;;;;14.40;6.82;;;;;;;10.31;92.56;99122.06;5023890;28;20038;-67
2021/09/07 02:52:45;;;;;;;12.70;6.22;;;;;;;10.18;92.99;99126.59;5023802;28;20098;-67
2021/09/07 02:55:10;;;;;;;11.30;5.95;;;;;;;10.27;92.79;99123.00;5024062;28;20041;-67
2021/09/07 02:57:36;;;;;;;8.95;6.07;;;;;;;10.25;93.16;99130.91;5023983;28;20056;-67
2021/09/07 03:00:03;;;;;;;10.07;5.75;;;;;;;10.39;93.19;99117.59;5023776;28;20073;-67
2021/09/07 03:02:29;;;;;;;9.43;5.70;;;;;;;10.27;92.74;99120.38;5023549;28;20260;-67
2021/09/07 03:04:54;;;;;;;11.27;5.60;;;;;;;10.19;92.61;99125.69;5023540;28;20038;-67
2021/09/07 03:07:20;;;;;;;11.90;6.13;;;;;;;10.21;92.65;99120.44;5023661;28;20026;-67
2021/09/07 03:09:45;;;;;;;10.80;6.57;;;;;;;10.07;92.16;99122.34;5023669;28;20033;-67
2021/09/07 03:12:11;;;;;;;16.70;5.45;;;;;;;10.12;92.43;99115.25;5023591;28;20045;-67
2021/09/07 03:14:37;;;;;;;10.10;5.80;;;;;;;10.18;92.63;99116.06;5023628;28;20025;-67
2021/09/07 03:17:03;;;;;;;9.52;5.45;;;;;;;10.18;92.89;99109.94;5023600;28;20022;-67
2021/09/07 03:19:28;;;;;;;9.77;5.75;;;;;;;10.23;92.61;99105.50;5023545;28;20022;-67
2021/09/07 03:21:53;;;;;;;12.18;5.60;;;;;;;10.05;92.62;99103.03;5023449;28;20034;-67
2021/09/07 03:24:19;;;;;;;10.23;5.78;;;;;;;9.98;92.47;99118.00;5023511;28;20052;-67
2021/09/07 03:26:44;;;;;;;6.90;4.93;;;;;;;9.97;93.23;99108.34;5026395;28;20208;-67
2021/09/07 03:29:10;;;;;;;10.43;4.90;;;;;;;10.12;93.06;99104.72;5027048;28;20030;-67
2021/09/07 03:31:35;;;;;;;6.57;4.32;;;;;;;10.20;92.78;99106.41;5026995;28;20018;-67
2021/09/07 03:34:01;;;;;;;6.80;4.75;;;;;;;10.23;92.49;99102.88;5027202;28;20368;-67
2021/09/07 03:36:27;;;;;;;6.10;4.43;;;;;;;10.21;92.77;99102.91;5026899;28;20037;-67
2021/09/07 03:38:52;;;;;;;9.50;5.43;;;;;;;10.08;92.78;99103.03;5026858;28;20030;-67
2021/09/07 03:41:17;;;;;;;7.97;4.57;;;;;;;10.16;92.53;99099.44;5026759;28;20229;-67
2021/09/07 03:43:43;;;;;;;8.02;4.97;;;;;;;10.17;92.70;99102.94;5026745;28;20093;-67
2021/09/07 03:46:08;;;;;;;6.85;4.60;;;;;;;10.15;92.79;99104.69;5026705;28;20053;-67
2021/09/07 03:48:34;;;;;;;8.15;5.05;;;;;;;10.06;93.11;99104.78;5026664;28;20225;-67
2021/09/07 03:50:59;;;;;;;8.77;5.10;;;;;;;9.90;92.98;99108.44;5026614;28;20318;-67
2021/09/07 03:53:28;;;;;;;6.68;4.43;;;;;;;9.96;92.90;99103.09;5026564;28;20081;-67
2021/09/07 03:55:53;;;;;;;6.63;4.80;;;;;;;10.04;93.27;99106.53;5026504;28;20025;-67
2021/09/07 03:58:19;;;;;;;10.65;5.20;;;;;;;9.97;92.83;99104.88;5026475;28;20128;-67
2021/09/07 04:00:44;;;;;;;9.45;5.63;;;;;;;9.81;92.44;99108.53;5026389;28;20198;-67
2021/09/07 04:03:14;;;;;;;8.63;5.63;;;;;;;9.95;93.13;99111.88;5026368;28;20037;-67
2021/09/07 04:05:40;;;;;;;11.15;5.90;;;;;;;10.01;93.22;99109.19;5026373;28;20036;-67
2021/09/07 04:08:05;;;;;;;7.50;5.25;;;;;;;9.95;92.93;99106.63;5026298;28;20028;-67
2021/09/07 04:10:31;;;;;;;9.60;5.90;;;;;;;9.98;92.59;99114.50;5026238;28;20026;-67
2021/09/07 04:12:56;;;;;;;8.32;5.55;;;;;;;9.96;92.05;99106.63;5026214;28;20029;-67
2021/09/07 04:15:22;;;;;;;9.05;5.10;;;;;;;9.91;92.03;99115.44;5026172;28;20033;-67
2021/09/07 04:17:47;;;;;;;8.57;5.82;;;;;;;9.77;92.35;99112.03;5026105;28;20085;-67
2021/09/07 04:20:13;;;;;;;10.05;6.60;;;;;;;9.78;92.96;99116.44;5026112;28;20045;-67
2021/09/07 04:22:38;;;;;;;8.65;5.95;;;;;;;9.76;92.98;99118.19;5026192;28;20030;-67
2021/09/07 04:25:04;;;;;;;9.02;5.65;;;;;;;9.87;93.07;99108.47;5025972;28;20029;-67
2021/09/07 04:27:30;;;;;;;10.10;5.60;;;;;;;9.86;93.02;99117.22;5026147;28;20240;-67
2021/09/07 04:29:55;;;;;;;8.60;5.43;;;;;;;9.89;92.27;99111.94;5025877;28;20026;-67
2021/09/07 04:32:20;;;;;;;7.90;5.00;;;;;;;9.70;93.00;99115.63;5025839;28;20017;-67
2021/09/07 04:34:46;;;;;;;5.07;3.75;;;;;;;9.67;93.05;99113.00;5025783;28;20022;-67
2021/09/07 04:37:11;;;;;;;8.18;5.10;;;;;;;9.58;92.32;99115.69;5025593;28;20026;-67
2021/09/07 04:39:37;;;;;;;8.18;5.00;;;;;;;9.63;92.76;99117.44;5025710;28;20289;-67
2021/09/07 04:42:02;;;;;;;7.55;4.97;;;;;;;9.71;93.65;99106.88;5025615;28;20049;-67
2021/09/07 04:44:28;;;;;;;8.95;4.68;;;;;;;9.82;93.19;99107.63;5025634;28;20025;-67
2021/09/07 04:46:53;;;;;;;7.32;4.97;;;;;;;9.81;92.26;99108.53;5025557;28;20032;-67
2021/09/07 04:49:19;;;;;;;5.40;3.90;;;;;;;9.81;92.37;99105.91;5025543;28;20328;-67
2021/09/07 04:51:44;;;;;;;6.30;4.40;;;;;;;9.58;92.27;99115.69;5025477;28;20317;-67
2021/09/07 04:54:09;;;;;;;7.90;4.55;;;;;;;9.36;93.17;99108.91;5025456;28;20064;-67
2021/09/07 04:56:35;;;;;;;8.93;4.32;;;;;;;9.51;94.15;99116.63;5025644;28;20033;-67
2021/09/07 04:59:00;;;;;;;6.70;4.82;;;;;;;9.60;93.69;99109.56;5025357;28;20033;-67
2021/09/07 05:01:26;;;;;;;10.23;5.43;;;;;;;9.70;93.01;99103.34;5025215;28;20085;-67
2021/09/07 05:03:51;;;;;;;10.30;5.05;;;;;;;9.80;93.20;99112.03;5025158;28;20301;-67
2021/09/07 05:06:16;;;;;;;11.60;5.97;;;;;;;9.78;93.29;99113.81;5025179;28;20325;-67
2021/09/07 05:08:42;;;;;;;9.68;5.72;;;;;;;9.75;92.92;99124.34;5025179;28;20057;-67
2021/09/07 05:11:07;;;;;;;7.10;5.13;;;;;;;9.86;92.85;99123.38;5025122;28;20029;-67
2021/09/07 05:13:32;;;;;;;7.38;5.15;;;;;;;9.90;92.73;99121.59;5025103;28;20084;-67
2021/09/07 05:15:58;;;;;;;9.77;6.07;;;;;;;9.92;92.53;99118.06;5025052;28;20026;-67
2021/09/07 05:18:24;;;;;;;8.48;5.53;;;;;;;9.96;92.67;99122.41;5024988;28;20033;-67
2021/09/07 05:20:49;;;;;;;8.75;5.93;;;;;;;9.97;92.66;99120.66;5025140;28;20352;-67
2021/09/07 05:23:15;;;;;;;9.10;6.18;;;;;;;10.00;92.24;99125.88;5024916;28;20084;-67
2021/09/07 05:25:40;;;;;;;8.27;5.35;;;;;;;9.97;92.48;99126.75;5024903;28;20032;-67
2021/09/07 05:28:05;;;;;;;12.20;6.15;;;;;;;9.90;92.70;99125.06;5024838;28;20063;-67
2021/09/07 05:30:31;;;;;;;9.77;5.63;;;;;;;9.93;93.15;99124.16;5024818;28;20025;-67
2021/09/07 05:32:56;;;;;;;8.35;5.07;;;;;;;10.10;93.04;99124.94;5024724;28;20029;-67
2021/09/07 05:35:22;;;;;;;8.13;5.22;;;;;;;10.19;92.76;99125.69;5024744;28;20056;-67
2021/09/07 05:37:47;;;;;;;7.85;5.05;;;;;;;10.18;93.07;99125.72;5024658;28;20036;-67
2021/09/07 05:40:14;;;;;;;10.45;5.13;;;;;;;10.33;92.57;99125.56;5024616;28;20052;-67
2021/09/07 05:42:44;;;;;;;7.78;5.22;;;;;;;10.38;92.27;99129.03;5024511;28;20026;-67
2021/09/07 05:45:11;;;;;;;11.70;5.13;;;;;;;10.36;91.95;99134.31;5024853;28;20026;-67
2021/09/07 05:47:37;;;;;;;8.32;4.72;;;;;;;10.40;92.11;99136.03;5023982;28;20026;-67
2021/09/07 05:50:03;;;;;;;8.30;5.10;;;;;;;10.23;92.05;99150.22;5024375;28;20089;-67
2021/09/07 05:52:30;;;;;;;7.45;5.10;;;;;;;10.40;92.13;99140.41;5024404;28;20021;-67
2021/09/07 05:54:55;;;;;;;8.05;5.20;;;;;;;10.35;91.97;99139.59;5024401;28;20321;-67
2021/09/07 05:57:21;;;;;;;10.57;5.88;;;;;;;10.53;92.16;99144.63;5024371;28;20049;-67
2021/09/07 05:59:46;;;;;;;7.50;4.85;;;;;;;10.70;91.48;99134.81;5024359;28;20044;-67
2021/09/07 06:02:11;;;;;;;10.85;5.10;;;;;;;10.81;90.96;99135.53;5024241;28;20025;-67
2021/09/07 06:04:37;;;;;;;11.93;6.00;;;;;;;10.83;91.52;99133.75;5024089;28;20236;-67
2021/09/07 06:07:02;;;;;;;8.57;5.60;;;;;;;10.87;91.76;99146.00;5006771;28;20037;-67
2021/09/07 06:09:28;;;;;;;8.30;5.78;;;;;;;11.02;91.51;99139.66;5024192;28;20347;-67
2021/09/07 06:11:53;;;;;;;8.07;5.10;;;;;;;11.27;90.80;99144.59;5024200;28;20080;-67
2021/09/07 06:14:19;;;;;;;11.20;5.88;;;;;;;11.52;89.93;99142.47;5024147;28;20030;-67
2021/09/07 06:16:44;;;;;;;10.57;5.75;;;;;;;11.57;89.44;99146.75;5024132;28;20029;-67
2021/09/07 06:19:10;;;;;;;8.63;5.57;;;;;;;11.66;89.75;99146.66;5024125;28;20360;-67
2021/09/07 06:21:35;;;;;;;10.38;6.05;;;;;;;11.73;89.71;99143.03;5023999;28;20030;-67
2021/09/07 06:24:01;;;;;;;9.65;5.47;;;;;;;11.97;89.52;99149.66;5024023;28;20344;-67
2021/09/07 06:26:27;;;;;;;12.70;5.72;;;;;;;12.03;90.97;99153.09;5024011;28;20081;-67
2021/09/07 06:28:52;;;;;;;10.57;4.80;;;;;;;12.19;90.16;99158.97;5024280;28;20033;-67
2021/09/07 06:31:17;;;;;;;11.13;5.78;;;;;;;12.28;89.91;99154.38;5023960;28;20018;-67
2021/09/07 06:33:43;;;;;;;10.25;5.72;;;;;;;12.42;89.22;99160.31;5023940;28;20026;-67
2021/09/07 06:36:08;;;;;;;13.80;6.22;;;;;;;12.43;89.86;99159.38;5024213;28;20198;-67
2021/09/07 06:38:33;;;;;;;9.80;5.85;;;;;;;12.43;89.98;99158.50;5024074;28;20248;-67
2021/09/07 06:40:59;;;;;;;11.55;6.13;;;;;;;12.62;89.32;99158.16;5023822;28;20033;-67
2021/09/07 06:43:24;;;;;;;9.60;6.22;;;;;;;12.85;88.68;99163.84;5023865;28;20036;-67
2021/09/07 06:45:50;;;;;;;7.25;4.82;;;;;;;13.21;87.63;99166.66;5023884;28;20186;-67
2021/09/07 06:48:15;;;;;;;8.20;5.45;;;;;;;13.15;87.61;99177.34;5024082;28;20025;-67
2021/09/07 06:50:42;;;;;;;15.35;6.35;;;;;;;13.19;87.08;99174.63;5023838;28;20036;-67
2021/09/07 06:53:07;;;;;;;12.38;6.00;;;;;;;13.41;87.50;99175.06;5023810;28;20029;-67
2021/09/07 06:55:32;;;;;;;12.98;6.70;;;;;;;13.68;86.44;99174.41;5023786;28;20080;-67
2021/09/07 06:57:58;;;;;;;8.88;5.72;;;;;;;13.91;86.32;99172.09;5023745;28;20029;-67
2021/09/07 07:00:23;;;;;;;12.32;6.93;;;;;;;13.99;87.65;99180.72;5026291;28;20021;-67
2021/09/07 07:02:49;;;;;;;9.27;5.78;;;;;;;14.20;87.17;99180.19;5027391;28;20064;-67
2021/09/07 07:05:15;;;;;;;9.70;6.38;;;;;;;14.51;87.61;99170.56;5027365;28;20046;-65
2021/09/07 07:07:40;;;;;;;12.05;6.57;;;;;;;14.76;87.17;99176.97;5027444;28;20313;-65
2021/09/07 07:10:06;;;;;;;9.57;6.50;;;;;;;14.95;86.24;99175.53;5027408;28;20022;-65
2021/09/07 07:12:32;;;;;;;11.23;7.72;;;;;;;15.22;84.62;99177.38;5027315;28;20025;-65
2021/09/07 07:14:58;;;;;;;11.40;7.30;;;;;;;15.71;83.07;99180.34;5027322;28;20025;-65
2021/09/07 07:17:23;;;;;;;14.43;8.05;;;;;;;16.50;80.52;99176.84;5027295;28;20367;-65
2021/09/07 07:19:50;;;;;;;10.55;7.00;;;;;;;17.07;78.22;99185.41;5027270;28;20029;-65
2021/09/07 07:22:16;;;;;;;11.82;8.05;;;;;;;17.00;78.56;99178.56;5027384;28;20026;-65
2021/09/07 07:24:41;;;;;;;11.27;7.57;;;;;;;17.34;79.56;99182.66;5027129;28;20276;-65
2021/09/07 07:27:06;;;;;;;10.05;7.20;;;;;;;17.59;77.02;99178.16;5027082;28;20032;-65
2021/09/07 07:29:32;;;;;;;10.10;6.55;;;;;;;18.40;76.59;99169.50;5027184;28;20083;-65
2021/09/07 07:31:58;;;;;;;10.40;6.65;;;;;;;19.03;73.81;99177.41;5027238;28;20018;-65
2021/09/07 07:34:23;;;;;;;15.30;6.97;;;;;;;19.25;59.82;99189.72;5026961;28;20072;-65
2021/09/07 07:36:53;;;;;;;11.60;6.30;;;;;;;18.80;66.83;99177.56;5009369;28;20025;-65
2021/09/07 07:39:19;;;;;;;12.48;6.85;;;;;;;17.94;75.09;99186.47;5026866;28;20053;-65
2021/09/07 07:41:44;;;;;;;9.48;6.38;;;;;;;18.32;74.84;99177.78;5026713;28;20073;-65
2021/09/07 07:44:09;;;;;;;13.80;7.05;;;;;;;18.44;75.32;99177.31;5026712;28;20049;-65
2021/09/07 07:46:35;;;;;;;13.02;7.30;;;;;;;18.30;76.30;99189.47;5026718;28;20048;-65
2021/09/07 07:49:00;;;;;;;13.35;7.72;;;;;;;18.17;76.52;99188.22;5026737;28;20022;-65
2021/09/07 07:51:26;;;;;;;12.05;7.20;;;;;;;18.09;78.02;99195.66;5026636;28;20021;-65
2021/09/07 07:53:51;;;;;;;13.02;7.22;;;;;;;17.98;78.35;99197.91;5026585;28;20053;-65
2021/09/07 07:56:17;;;;;;;13.13;8.18;;;;;;;17.91;79.07;99201.75;5026548;28;20325;-65
2021/09/07 07:58:42;;;;;;;13.20;7.85;;;;;;;17.80;79.80;99203.94;5026518;28;20022;-65
2021/09/07 08:01:07;;;;;;;14.68;7.63;;;;;;;17.85;80.33;99208.19;5026421;28;20275;-65
2021/09/07 08:03:33;;;;;;;12.18;8.10;;;;;;;18.02;80.40;99213.69;5026273;28;20237;-65
2021/09/07 08:05:59;;;;;;;16.75;7.95;;;;;;;18.24;79.69;99203.03;5026386;28;20088;-65
2021/09/07 08:08:24;;;;;;;10.88;8.25;;;;;;;18.85;77.61;99210.22;5026330;28;20085;-65
2021/09/07 08:10:50;;;;;;;18.52;8.40;;;;;;;18.90;76.37;99210.88;5025547;28;20069;-65
2021/09/07 08:13:15;;;;;;;12.50;7.75;;;;;;;18.79;77.87;99199.81;5026236;28;20026;-65
2021/09/07 08:15:41;;;;;;;12.45;8.68;;;;;;;18.86;77.56;99202.13;5026459;28;20049;-66
2021/09/07 08:18:06;;;;;;;16.23;8.15;;;;;;;18.93;77.89;99202.75;5026145;28;20056;-65
2021/09/07 08:20:33;;;;;;;11.77;8.30;;;;;;;18.85;79.15;99210.22;5026093;28;20089;-65
2021/09/07 08:22:59;;;;;;;14.27;8.43;;;;;;;19.00;79.18;99206.88;5026068;28;20025;-65
2021/09/07 08:25:26;;;;;;;14.35;8.20;;;;;;;19.01;78.38;99216.59;5025970;28;20084;-65
2021/09/07 08:27:51;;;;;;;14.55;8.20;;;;;;;19.43;77.08;99214.75;5025961;28;20328;-65
2021/09/07 08:30:17;;;;;;;13.85;8.13;;;;;;;19.87;76.31;99210.84;5025910;28;20033;-65
2021/09/07 08:32:43;;;;;;;12.75;8.73;;;;;;;20.01;75.24;99212.88;5025918;28;20050;-65
2021/09/07 08:35:10;;;;;;;22.25;9.60;;;;;;;20.07;76.46;99213.44;5025826;28;20085;-65
2021/09/07 08:37:36;;;;;;;13.32;8.65;;;;;;;20.16;75.16;99209.50;5025839;28;20316;-65
2021/09/07 08:40:02;;;;;;;12.98;9.30;;;;;;;20.53;74.76;99206.75;5025978;28;20041;-65
2021/09/07 08:42:27;;;;;;;17.98;9.20;;;;;;;20.64;72.56;99210.59;5025609;28;20022;-65
2021/09/07 08:44:53;;;;;;;18.33;10.75;;;;;;;20.83;69.71;99214.06;5025610;28;20321;-65
2021/09/07 08:47:19;;;;;;;13.27;9.63;;;;;;;21.10;70.49;99220.69;5025618;28;20317;-65
2021/09/07 08:49:48;;;;;;;19.55;10.90;;;;;;;20.97;70.33;99211.56;5025596;28;20056;-65
2021/09/07 08:52:14;;;;;;;18.73;11.07;;;;;;;20.97;71.13;99211.56;5025499;28;20044;-65
2021/09/07 08:54:43;;;;;;;15.70;10.00;;;;;;;21.53;69.74;99213.91;5025443;28;20018;-65
2021/09/07 08:57:09;;;;;;;17.48;10.80;;;;;;;22.05;69.30;99218.16;5025393;28;20029;-65
2021/09/07 08:59:35;;;;;;;18.52;9.68;;;;;;;22.83;67.40;99213.56;5025369;28;20025;-65
2021/09/07 09:02:17;;;;;;;15.35;9.55;;;;;;;23.43;65.16;99218.88;5025243;28;20022;-65
2021/09/07 09:04:48;;;;;;;17.33;9.27;;;;;;;23.83;64.13;99219.00;5025147;28;20050;-65
2021/09/07 09:07:18;;;;;;;19.05;9.45;;;;;;;23.99;66.14;99219.78;5025288;28;20021;-65
2021/09/07 09:09:45;;;;;;;22.85;10.50;;;;;;;24.42;66.69;99228.63;5025492;28;20052;-65
2021/09/07 09:12:11;;;;;;;16.65;9.25;;;;;;;24.76;62.27;99211.94;5025155;28;20336;-65
2021/09/07 09:14:36;;;;;;;17.17;10.25;;;;;;;24.77;64.19;99219.09;5025097;28;20017;-65
2021/09/07 09:17:16;;;;;;;15.73;9.95;;;;;;;25.30;63.02;99230.59;5025299;28;20072;-65
2021/09/07 09:19:48;;;;;;;15.13;9.35;;;;;;;25.47;60.43;99224.06;5025069;28;20021;-65
2021/09/07 09:22:13;;;;;;;18.02;10.43;;;;;;;25.32;59.82;99221.56;5024475;28;20032;-65
2021/09/07 09:24:39;;;;;;;16.75;9.77;;;;;;;25.58;59.31;99217.91;5024362;28;20293;-65
2021/09/07 09:27:04;;;;;;;17.40;10.13;;;;;;;25.65;59.45;99220.06;5024876;28;20049;-65
2021/09/07 09:29:31;;;;;;;14.00;9.43;;;;;;;25.75;58.34;99221.13;5025077;28;20088;-65
2021/09/07 09:32:06;;;;;;;15.02;10.65;;;;;;;25.04;61.38;99218.06;5024771;28;20162;-65
2021/09/07 09:34:33;;;;;;;16.80;10.80;;;;;;;25.13;61.22;99212.03;5024822;28;20029;-65
2021/09/07 09:37:15;;;;;;;15.70;10.10;;;;;;;25.32;62.13;99224.25;5024726;28;20225;-65
2021/09/07 09:40:00;;;;;;;16.48;9.75;;;;;;;25.78;60.18;99214.66;5007165;28;20104;-65
2021/09/07 09:42:30;;;;;;;18.42;9.85;;;;;;;26.37;57.84;99213.88;5024530;28;20026;-65
2021/09/07 09:45:07;;;;;;;19.25;10.23;;;;;;;26.55;58.29;99201.72;5024586;28;20022;-65
2021/09/07 09:47:43;;;;;;;14.38;9.27;;;;;;;27.07;56.85;99210.31;5024557;28;20026;-65
2021/09/07 09:50:11;;;;;;;11.88;8.38;;;;;;;26.80;50.84;99207.03;5024593;28;20021;-65
2021/09/07 09:52:40;;;;;;;11.50;8.10;;;;;;;27.12;52.48;99210.81;5024522;28;20045;-65
2021/09/07 09:55:08;;;;;;;16.42;8.85;;;;;;;27.02;50.58;99201.72;5024461;28;20029;-65
2021/09/07 09:57:35;;;;;;;17.98;9.70;;;;;;;26.44;53.45;99207.03;5024432;28;20340;-65
2021/09/07 10:00:02;;;;;;;13.98;9.10;;;;;;;26.70;51.21;99201.44;5024392;28;20351;-65
2021/09/07 10:02:30;;;;;;;14.30;9.40;;;;;;;27.19;50.37;99206.66;5024428;28;20085;-65
2021/09/07 10:04:55;;;;;;;13.90;8.75;;;;;;;27.21;51.34;99202.00;5024171;28;20045;-65
2021/09/07 10:07:21;;;;;;;11.52;8.15;;;;;;;27.57;50.44;99199.13;5024291;28;20021;-65
2021/09/07 10:09:48;;;;;;;18.67;9.80;;;;;;;27.07;52.16;99197.66;5024235;28;20032;-65
2021/09/07 10:12:23;;;;;;;11.32;8.43;;;;;;;27.57;51.22;99203.69;5024222;28;20060;-65
2021/09/07 10:15:01;;;;;;;19.65;8.70;;;;;;;27.68;48.76;99201.84;5024256;28;20026;-65
2021/09/07 10:17:50;;;;;;;14.52;8.50;;;;;;;27.13;49.92;99193.63;5006637;28;20028;-65
2021/09/07 10:20:23;;;;;;;18.70;8.85;;;;;;;27.00;51.18;99182.91;5023715;28;20030;-65
2021/09/07 10:25:58;;;;;;;13.25;8.73;;;;;;;27.89;49.31;99178.50;5024351;28;20080;-65
2021/09/07 10:28:30;;;;;;;12.85;8.82;;;;;;;28.03;50.01;99180.09;5023996;28;20022;-65
2021/09/07 10:30:55;;;;;;;;;;;;;;;27.65;49.87;99172.31;5024445;28;20028;-65
2021/09/07 10:33:31;;;;;;;13.87;8.97;;;;;;;27.49;51.52;99168.28;5024067;28;19905;-65
2021/09/07 10:36:09;;;;;;;18.15;8.77;;;;;;;27.56;49.72;99180.31;5027656;28;20225;-65
2021/09/07 10:38:59;;;;;;;12.65;8.75;;;;;;;27.86;50.33;99167.94;5028032;28;20022;-65
2021/09/07 10:41:33;;;;;;;17.80;8.60;;;;;;;28.16;48.03;99159.16;5014976;28;20085;-65
2021/09/07 10:44:06;;;;;;;13.43;8.77;;;;;;;28.07;46.88;99165.31;5027880;28;20025;-65
2021/09/07 10:46:39;;;;;;;14.40;7.95;;;;;;;28.17;45.37;99156.31;5027645;28;20029;-65
2021/09/07 10:49:13;;;;;;;11.40;8.02;;;;;;;28.41;46.03;99153.44;5027819;28;20064;-65
2021/09/07 10:52:09;;;;;;;10.88;8.02;;;;;;;28.66;43.64;99148.53;5027740;28;20026;-65
2021/09/07 10:54:56;;;;;;;13.60;8.00;;;;;;;28.34;46.78;99146.78;5027989;28;20030;-65
2021/09/07 10:57:38;;;;;;;13.57;7.75;;;;;;;28.51;44.88;99149.81;5027690;28;20021;-66
2021/09/07 11:00:18;;;;;;;12.75;7.68;;;;;;;28.29;45.80;99144.50;5027904;28;20030;-66
2021/09/07 11:02:55;;;;;;;10.90;7.95;;;;;;;27.89;43.78;99146.03;5027442;28;20025;-65
2021/09/07 11:05:26;;;;;;;11.07;7.95;;;;;;;27.89;42.85;99145.16;5027412;28;20034;-65
2021/09/07 11:08:01;;;;;;;14.65;7.82;;;;;;;27.61;44.42;99138.41;5027482;28;20344;-65
2021/09/07 11:10:52;;;;;;;12.68;7.78;;;;;;;28.10;42.25;99129.88;5027701;28;20026;-65
2021/09/07 11:13:25;;;;;;;12.68;7.30;;;;;;;28.07;42.66;99122.88;5027144;28;20408;-65
2021/09/07 11:15:52;;;;;;;10.77;7.70;;;;;;;28.16;44.86;99127.50;5027336;28;20052;-65
2021/09/07 11:18:26;;;;;;;10.65;6.65;;;;;;;28.05;38.56;99130.25;5027301;28;20256;-65
2021/09/07 11:20:53;;;;;;;12.00;7.18;;;;;;;27.67;39.27;99129.78;5027199;28;20033;-65
2021/09/07 11:23:29;;;;;;;10.63;7.57;;;;;;;27.70;39.12;99131.38;5027174;28;20053;-65
2021/09/07 11:26:12;;;;;;;8.80;7.00;;;;;;;27.34;39.80;99129.81;5027137;28;20029;-65
2021/09/07 11:28:44;;;;;;;10.95;7.10;;;;;;;27.42;39.12;99124.63;5027098;28;20249;-65
2021/09/07 11:31:11;;;;;;;11.35;7.68;;;;;;;27.66;38.34;99111.84;5027120;28;20085;-65